sensor_id;sensor_type;location;lat;lon;timestamp;P1;durP1;ratioP1;P2;durP2;ratioP2
66542;SDS011;53395;37.360;-122.046;2022-12-18T00:00:07;13.30;;;5.18;;
66542;SDS011;53395;37.360;-122.046;2022-12-18T00:02:33;10.13;;;5.22;;
66542;SDS011;53395;37.360;-122.046;2022-12-18T00:04:58;10.43;;;5.15;;
66542;SDS011;53395;37.360;-122.046;2022-12-18T00:07:24;9.60;;;5.05;;
66542;SDS011;53395;37.360;-122.046;2022-12-18T00:09:50;12.70;;;5.53;;
66542;SDS011;53395;37.360;-122.046;2022-12-18T00:12:16;11.32;;;5.65;;
66542;SDS011;53395;37.360;-122.046;2022-12-18T00:14:43;10.55;;;5.75;;
66542;SDS011;53395;37.360;-122.046;2022-12-18T00:17:09;12.68;;;6.45;;
66542;SDS011;53395;37.360;-122.046;2022-12-18T00:19:34;11.27;;;6.03;;
66542;SDS011;53395;37.360;-122.046;2022-12-18T00:22:00;12.90;;;6.82;;
66542;SDS011;53395;37.360;-122.046;2022-12-18T00:24:26;11.82;;;6.45;;
66542;SDS011;53395;37.360;-122.046;2022-12-18T00:26:52;12.25;;;6.78;;
66542;SDS011;53395;37.360;-122.046;2022-12-18T00:29:18;16.98;;;8.52;;
66542;SDS011;53395;37.360;-122.046;2022-12-18T00:31:44;16.52;;;8.68;;
66542;SDS011;53395;37.360;-122.046;2022-12-18T00:34:10;16.52;;;10.07;;
66542;SDS011;53395;37.360;-122.046;2022-12-18T00:36:37;16.88;;;9.60;;
66542;SDS011;53395;37.360;-122.046;2022-12-18T00:39:03;18.73;;;10.35;;
66542;SDS011;53395;37.360;-122.046;2022-12-18T00:41:30;20.08;;;11.82;;
66542;SDS011;53395;37.360;-122.046;2022-12-18T00:44:15;21.85;;;11.52;;
66542;SDS011;53395;37.360;-122.046;2022-12-18T00:46:41;19.88;;;11.38;;
66542;SDS011;53395;37.360;-122.046;2022-12-18T00:49:07;21.13;;;10.90;;
66542;SDS011;53395;37.360;-122.046;2022-12-18T00:51:33;19.45;;;11.00;;
66542;SDS011;53395;37.360;-122.046;2022-12-18T00:53:59;17.08;;;10.50;;
66542;SDS011;53395;37.360;-122.046;2022-12-18T00:56:25;17.77;;;10.07;;
66542;SDS011;53395;37.360;-122.046;2022-12-18T00:58:51;17.08;;;9.90;;
66542;SDS011;53395;37.360;-122.046;2022-12-18T01:01:17;17.35;;;10.63;;
66542;SDS011;53395;37.360;-122.046;2022-12-18T01:03:43;19.90;;;11.60;;
66542;SDS011;53395;37.360;-122.046;2022-12-18T01:06:11;20.15;;;11.93;;
66542;SDS011;53395;37.360;-122.046;2022-12-18T01:08:37;19.67;;;11.27;;
66542;SDS011;53395;37.360;-122.046;2022-12-18T01:11:10;23.38;;;11.77;;
66542;SDS011;53395;37.360;-122.046;2022-12-18T01:13:37;20.30;;;11.43;;
66542;SDS011;53395;37.360;-122.046;2022-12-18T01:16:03;17.65;;;10.85;;
66542;SDS011;53395;37.360;-122.046;2022-12-18T01:18:28;18.02;;;11.20;;
66542;SDS011;53395;37.360;-122.046;2022-12-18T01:20:54;22.75;;;11.30;;
66542;SDS011;53395;37.360;-122.046;2022-12-18T01:23:20;19.63;;;11.68;;
66542;SDS011;53395;37.360;-122.046;2022-12-18T01:25:46;20.65;;;11.43;;
66542;SDS011;53395;37.360;-122.046;2022-12-18T01:28:12;21.83;;;12.70;;
66542;SDS011;53395;37.360;-122.046;2022-12-18T01:30:38;21.48;;;12.40;;
66542;SDS011;53395;37.360;-122.046;2022-12-18T01:33:04;21.88;;;12.38;;
66542;SDS011;53395;37.360;-122.046;2022-12-18T01:35:30;20.35;;;11.45;;
66542;SDS011;53395;37.360;-122.046;2022-12-18T01:37:56;19.60;;;11.77;;
66542;SDS011;53395;37.360;-122.046;2022-12-18T01:40:22;18.02;;;11.25;;
66542;SDS011;53395;37.360;-122.046;2022-12-18T01:42:51;20.13;;;12.07;;
66542;SDS011;53395;37.360;-122.046;2022-12-18T01:47:47;21.90;;;11.52;;
66542;SDS011;53395;37.360;-122.046;2022-12-18T01:50:15;19.52;;;11.73;;
66542;SDS011;53395;37.360;-122.046;2022-12-18T01:52:42;23.88;;;11.88;;
66542;SDS011;53395;37.360;-122.046;2022-12-18T01:55:09;20.40;;;11.05;;
66542;SDS011;53395;37.360;-122.046;2022-12-18T01:57:35;18.55;;;10.40;;
66542;SDS011;53395;37.360;-122.046;2022-12-18T02:00:04;17.70;;;9.93;;
66542;SDS011;53395;37.360;-122.046;2022-12-18T02:02:30;16.30;;;9.27;;
66542;SDS011;53395;37.360;-122.046;2022-12-18T02:04:56;16.00;;;9.77;;
66542;SDS011;53395;37.360;-122.046;2022-12-18T02:12:39;15.20;;;8.43;;
66542;SDS011;53395;37.360;-122.046;2022-12-18T02:22:59;13.68;;;9.20;;
66542;SDS011;53395;37.360;-122.046;2022-12-18T02:27:51;15.18;;;7.95;;
66542;SDS011;53395;37.360;-122.046;2022-12-18T02:30:18;16.92;;;8.40;;
66542;SDS011;53395;37.360;-122.046;2022-12-18T02:32:46;15.52;;;7.38;;
66542;SDS011;53395;37.360;-122.046;2022-12-18T02:35:20;11.50;;;7.53;;
66542;SDS011;53395;37.360;-122.046;2022-12-18T02:37:46;12.57;;;7.20;;
66542;SDS011;53395;37.360;-122.046;2022-12-18T02:40:12;14.38;;;6.90;;
66542;SDS011;53395;37.360;-122.046;2022-12-18T02:42:39;11.98;;;6.82;;
66542;SDS011;53395;37.360;-122.046;2022-12-18T02:45:05;14.05;;;6.57;;
66542;SDS011;53395;37.360;-122.046;2022-12-18T02:47:32;16.33;;;7.38;;
66542;SDS011;53395;37.360;-122.046;2022-12-18T02:54:59;14.30;;;8.20;;
66542;SDS011;53395;37.360;-122.046;2022-12-18T02:57:39;17.80;;;14.48;;
66542;SDS011;53395;37.360;-122.046;2022-12-18T03:00:08;17.65;;;8.35;;
66542;SDS011;53395;37.360;-122.046;2022-12-18T03:02:46;17.15;;;8.02;;
66542;SDS011;53395;37.360;-122.046;2022-12-18T03:05:17;12.30;;;7.00;;
66542;SDS011;53395;37.360;-122.046;2022-12-18T03:10:11;13.02;;;7.47;;
66542;SDS011;53395;37.360;-122.046;2022-12-18T03:12:38;15.45;;;7.15;;
66542;SDS011;53395;37.360;-122.046;2022-12-18T03:17:32;12.90;;;7.47;;
66542;SDS011;53395;37.360;-122.046;2022-12-18T03:22:24;12.50;;;6.45;;
66542;SDS011;53395;37.360;-122.046;2022-12-18T03:24:53;15.05;;;6.78;;
66542;SDS011;53395;37.360;-122.046;2022-12-18T03:32:11;24.63;;;13.40;;
66542;SDS011;53395;37.360;-122.046;2022-12-18T03:34:38;23.70;;;13.05;;
66542;SDS011;53395;37.360;-122.046;2022-12-18T03:37:06;20.38;;;11.57;;
66542;SDS011;53395;37.360;-122.046;2022-12-18T03:39:33;17.92;;;10.00;;
66542;SDS011;53395;37.360;-122.046;2022-12-18T03:42:04;14.88;;;8.50;;
66542;SDS011;53395;37.360;-122.046;2022-12-18T03:47:06;16.38;;;9.75;;
66542;SDS011;53395;37.360;-122.046;2022-12-18T03:49:47;18.00;;;8.43;;
66542;SDS011;53395;37.360;-122.046;2022-12-18T03:52:18;14.85;;;8.23;;
66542;SDS011;53395;37.360;-122.046;2022-12-18T03:54:46;18.10;;;8.85;;
66542;SDS011;53395;37.360;-122.046;2022-12-18T03:57:17;15.57;;;8.43;;
66542;SDS011;53395;37.360;-122.046;2022-12-18T03:59:44;14.32;;;7.30;;
66542;SDS011;53395;37.360;-122.046;2022-12-18T04:02:11;11.38;;;7.20;;
66542;SDS011;53395;37.360;-122.046;2022-12-18T04:04:37;13.32;;;7.03;;
66542;SDS011;53395;37.360;-122.046;2022-12-18T04:07:04;9.68;;;6.05;;
66542;SDS011;53395;37.360;-122.046;2022-12-18T04:09:30;11.57;;;6.18;;
66542;SDS011;53395;37.360;-122.046;2022-12-18T04:14:22;11.20;;;5.68;;
66542;SDS011;53395;37.360;-122.046;2022-12-18T04:16:48;12.88;;;6.90;;
66542;SDS011;53395;37.360;-122.046;2022-12-18T04:19:14;12.07;;;6.45;;
66542;SDS011;53395;37.360;-122.046;2022-12-18T04:21:40;12.18;;;6.47;;
66542;SDS011;53395;37.360;-122.046;2022-12-18T04:24:06;12.30;;;6.32;;
66542;SDS011;53395;37.360;-122.046;2022-12-18T04:26:32;13.55;;;6.68;;
66542;SDS011;53395;37.360;-122.046;2022-12-18T04:28:58;12.18;;;6.88;;
66542;SDS011;53395;37.360;-122.046;2022-12-18T04:31:24;13.52;;;7.05;;
66542;SDS011;53395;37.360;-122.046;2022-12-18T04:33:49;12.57;;;5.90;;
66542;SDS011;53395;37.360;-122.046;2022-12-18T04:36:15;13.40;;;6.38;;
66542;SDS011;53395;37.360;-122.046;2022-12-18T04:38:41;12.70;;;6.78;;
66542;SDS011;53395;37.360;-122.046;2022-12-18T04:41:07;14.18;;;6.07;;
66542;SDS011;53395;37.360;-122.046;2022-12-18T04:43:33;10.63;;;5.40;;
66542;SDS011;53395;37.360;-122.046;2022-12-18T04:46:05;11.23;;;5.72;;
66542;SDS011;53395;37.360;-122.046;2022-12-18T04:48:32;13.38;;;6.30;;
66542;SDS011;53395;37.360;-122.046;2022-12-18T04:50:58;10.38;;;5.40;;
66542;SDS011;53395;37.360;-122.046;2022-12-18T04:53:24;14.70;;;7.47;;
66542;SDS011;53395;37.360;-122.046;2022-12-18T04:55:50;15.23;;;8.15;;
66542;SDS011;53395;37.360;-122.046;2022-12-18T04:58:16;16.85;;;7.90;;
66542;SDS011;53395;37.360;-122.046;2022-12-18T05:00:42;13.95;;;7.35;;
66542;SDS011;53395;37.360;-122.046;2022-12-18T05:03:08;16.20;;;8.05;;
66542;SDS011;53395;37.360;-122.046;2022-12-18T05:05:34;13.80;;;7.43;;
66542;SDS011;53395;37.360;-122.046;2022-12-18T05:08:00;14.70;;;6.53;;
66542;SDS011;53395;37.360;-122.046;2022-12-18T05:10:26;11.68;;;6.40;;
66542;SDS011;53395;37.360;-122.046;2022-12-18T05:12:52;11.45;;;5.85;;
66542;SDS011;53395;37.360;-122.046;2022-12-18T05:15:28;12.52;;;5.75;;
66542;SDS011;53395;37.360;-122.046;2022-12-18T05:17:54;14.07;;;6.07;;
66542;SDS011;53395;37.360;-122.046;2022-12-18T05:20:20;12.10;;;6.85;;
66542;SDS011;53395;37.360;-122.046;2022-12-18T05:22:45;13.98;;;6.63;;
66542;SDS011;53395;37.360;-122.046;2022-12-18T05:25:11;15.13;;;6.25;;
66542;SDS011;53395;37.360;-122.046;2022-12-18T05:27:37;10.77;;;6.15;;
66542;SDS011;53395;37.360;-122.046;2022-12-18T05:30:03;14.25;;;5.90;;
66542;SDS011;53395;37.360;-122.046;2022-12-18T05:32:29;9.98;;;5.43;;
66542;SDS011;53395;37.360;-122.046;2022-12-18T05:34:55;13.23;;;5.78;;
66542;SDS011;53395;37.360;-122.046;2022-12-18T05:37:22;10.65;;;5.82;;
66542;SDS011;53395;37.360;-122.046;2022-12-18T05:39:48;10.38;;;4.90;;
66542;SDS011;53395;37.360;-122.046;2022-12-18T05:42:14;10.00;;;5.05;;
66542;SDS011;53395;37.360;-122.046;2022-12-18T05:44:40;11.48;;;5.13;;
66542;SDS011;53395;37.360;-122.046;2022-12-18T05:47:05;9.27;;;4.57;;
66542;SDS011;53395;37.360;-122.046;2022-12-18T05:49:32;12.80;;;5.65;;
66542;SDS011;53395;37.360;-122.046;2022-12-18T05:51:57;11.80;;;5.38;;
66542;SDS011;53395;37.360;-122.046;2022-12-18T05:54:23;9.32;;;4.75;;
66542;SDS011;53395;37.360;-122.046;2022-12-18T05:56:49;9.98;;;4.70;;
66542;SDS011;53395;37.360;-122.046;2022-12-18T05:59:15;11.45;;;5.72;;
66542;SDS011;53395;37.360;-122.046;2022-12-18T06:01:41;10.00;;;4.95;;
66542;SDS011;53395;37.360;-122.046;2022-12-18T06:06:33;10.73;;;5.05;;
66542;SDS011;53395;37.360;-122.046;2022-12-18T06:08:59;13.25;;;6.50;;
66542;SDS011;53395;37.360;-122.046;2022-12-18T06:11:26;11.85;;;6.93;;
66542;SDS011;53395;37.360;-122.046;2022-12-18T06:13:53;14.93;;;6.80;;
66542;SDS011;53395;37.360;-122.046;2022-12-18T06:18:45;8.85;;;5.57;;
66542;SDS011;53395;37.360;-122.046;2022-12-18T06:21:11;10.70;;;5.18;;
66542;SDS011;53395;37.360;-122.046;2022-12-18T06:23:37;8.77;;;5.30;;
66542;SDS011;53395;37.360;-122.046;2022-12-18T06:26:04;9.07;;;5.30;;
66542;SDS011;53395;37.360;-122.046;2022-12-18T06:28:30;11.48;;;5.60;;
66542;SDS011;53395;37.360;-122.046;2022-12-18T06:30:56;11.00;;;5.70;;
66542;SDS011;53395;37.360;-122.046;2022-12-18T06:33:25;11.35;;;5.22;;
66542;SDS011;53395;37.360;-122.046;2022-12-18T06:35:51;10.95;;;5.82;;
66542;SDS011;53395;37.360;-122.046;2022-12-18T06:38:17;12.43;;;4.90;;
66542;SDS011;53395;37.360;-122.046;2022-12-18T06:40:43;11.73;;;5.20;;
66542;SDS011;53395;37.360;-122.046;2022-12-18T06:43:08;9.38;;;5.10;;
66542;SDS011;53395;37.360;-122.046;2022-12-18T06:45:34;11.32;;;5.63;;
66542;SDS011;53395;37.360;-122.046;2022-12-18T06:48:00;12.68;;;5.13;;
66542;SDS011;53395;37.360;-122.046;2022-12-18T06:50:26;8.32;;;4.50;;
66542;SDS011;53395;37.360;-122.046;2022-12-18T06:52:52;10.88;;;5.20;;
66542;SDS011;53395;37.360;-122.046;2022-12-18T06:55:18;9.73;;;4.93;;
66542;SDS011;53395;37.360;-122.046;2022-12-18T06:57:44;10.93;;;5.32;;
66542;SDS011;53395;37.360;-122.046;2022-12-18T07:00:10;10.45;;;4.97;;
66542;SDS011;53395;37.360;-122.046;2022-12-18T07:02:36;9.02;;;4.50;;
66542;SDS011;53395;37.360;-122.046;2022-12-18T07:05:02;9.07;;;5.07;;
66542;SDS011;53395;37.360;-122.046;2022-12-18T07:07:28;9.15;;;5.00;;
66542;SDS011;53395;37.360;-122.046;2022-12-18T07:09:53;10.27;;;4.70;;
66542;SDS011;53395;37.360;-122.046;2022-12-18T07:12:19;9.80;;;5.50;;
66542;SDS011;53395;37.360;-122.046;2022-12-18T07:14:45;8.55;;;4.80;;
66542;SDS011;53395;37.360;-122.046;2022-12-18T07:17:11;17.20;;;4.97;;
66542;SDS011;53395;37.360;-122.046;2022-12-18T07:19:37;8.68;;;4.82;;
66542;SDS011;53395;37.360;-122.046;2022-12-18T07:22:03;10.98;;;4.53;;
66542;SDS011;53395;37.360;-122.046;2022-12-18T07:24:28;8.65;;;4.40;;
66542;SDS011;53395;37.360;-122.046;2022-12-18T07:26:54;8.00;;;4.50;;
66542;SDS011;53395;37.360;-122.046;2022-12-18T07:29:20;9.80;;;5.10;;
66542;SDS011;53395;37.360;-122.046;2022-12-18T07:31:46;9.60;;;4.35;;
66542;SDS011;53395;37.360;-122.046;2022-12-18T07:34:12;9.60;;;4.95;;
66542;SDS011;53395;37.360;-122.046;2022-12-18T07:36:39;9.85;;;4.80;;
66542;SDS011;53395;37.360;-122.046;2022-12-18T07:39:05;9.20;;;4.40;;
66542;SDS011;53395;37.360;-122.046;2022-12-18T07:41:30;13.02;;;5.22;;
66542;SDS011;53395;37.360;-122.046;2022-12-18T07:43:56;8.80;;;4.65;;
66542;SDS011;53395;37.360;-122.046;2022-12-18T07:46:22;8.65;;;5.13;;
66542;SDS011;53395;37.360;-122.046;2022-12-18T07:48:48;11.55;;;4.45;;
66542;SDS011;53395;37.360;-122.046;2022-12-18T07:51:14;8.32;;;4.38;;
66542;SDS011;53395;37.360;-122.046;2022-12-18T07:53:40;8.40;;;4.90;;
66542;SDS011;53395;37.360;-122.046;2022-12-18T07:56:07;10.90;;;4.95;;
66542;SDS011;53395;37.360;-122.046;2022-12-18T07:58:34;12.43;;;4.22;;
66542;SDS011;53395;37.360;-122.046;2022-12-18T08:01:03;9.05;;;4.50;;
66542;SDS011;53395;37.360;-122.046;2022-12-18T08:03:29;9.25;;;4.55;;
66542;SDS011;53395;37.360;-122.046;2022-12-18T08:05:59;9.35;;;4.55;;
66542;SDS011;53395;37.360;-122.046;2022-12-18T08:08:25;11.75;;;5.03;;
66542;SDS011;53395;37.360;-122.046;2022-12-18T08:10:51;8.35;;;4.50;;
66542;SDS011;53395;37.360;-122.046;2022-12-18T08:13:17;9.75;;;4.45;;
66542;SDS011;53395;37.360;-122.046;2022-12-18T08:15:42;9.63;;;4.75;;
66542;SDS011;53395;37.360;-122.046;2022-12-18T08:18:08;8.55;;;4.95;;
66542;SDS011;53395;37.360;-122.046;2022-12-18T08:20:34;9.32;;;4.47;;
66542;SDS011;53395;37.360;-122.046;2022-12-18T08:23:00;8.30;;;4.20;;
66542;SDS011;53395;37.360;-122.046;2022-12-18T08:25:26;10.63;;;5.07;;
66542;SDS011;53395;37.360;-122.046;2022-12-18T08:27:52;11.88;;;4.75;;
66542;SDS011;53395;37.360;-122.046;2022-12-18T08:30:17;11.73;;;4.50;;
66542;SDS011;53395;37.360;-122.046;2022-12-18T08:32:43;7.63;;;3.97;;
66542;SDS011;53395;37.360;-122.046;2022-12-18T08:35:09;8.85;;;4.57;;
66542;SDS011;53395;37.360;-122.046;2022-12-18T08:37:37;8.80;;;4.60;;
66542;SDS011;53395;37.360;-122.046;2022-12-18T08:40:03;8.02;;;4.35;;
66542;SDS011;53395;37.360;-122.046;2022-12-18T08:42:28;10.20;;;5.03;;
66542;SDS011;53395;37.360;-122.046;2022-12-18T08:45:12;10.10;;;5.07;;
66542;SDS011;53395;37.360;-122.046;2022-12-18T08:47:38;11.85;;;5.25;;
66542;SDS011;53395;37.360;-122.046;2022-12-18T08:50:04;10.48;;;4.75;;
66542;SDS011;53395;37.360;-122.046;2022-12-18T08:52:31;9.50;;;4.32;;
66542;SDS011;53395;37.360;-122.046;2022-12-18T08:54:57;9.18;;;3.92;;
66542;SDS011;53395;37.360;-122.046;2022-12-18T08:57:23;8.20;;;4.28;;
66542;SDS011;53395;37.360;-122.046;2022-12-18T08:59:49;9.68;;;4.30;;
66542;SDS011;53395;37.360;-122.046;2022-12-18T09:02:15;12.23;;;4.38;;
66542;SDS011;53395;37.360;-122.046;2022-12-18T09:04:40;8.43;;;3.80;;
66542;SDS011;53395;37.360;-122.046;2022-12-18T09:07:06;8.68;;;4.20;;
66542;SDS011;53395;37.360;-122.046;2022-12-18T09:09:32;9.43;;;4.00;;
66542;SDS011;53395;37.360;-122.046;2022-12-18T09:11:58;8.95;;;4.22;;
66542;SDS011;53395;37.360;-122.046;2022-12-18T09:14:24;7.60;;;3.83;;
66542;SDS011;53395;37.360;-122.046;2022-12-18T09:16:50;9.05;;;3.70;;
66542;SDS011;53395;37.360;-122.046;2022-12-18T09:19:15;8.30;;;4.05;;
66542;SDS011;53395;37.360;-122.046;2022-12-18T09:21:41;8.50;;;4.22;;
66542;SDS011;53395;37.360;-122.046;2022-12-18T09:24:08;5.53;;;3.55;;
66542;SDS011;53395;37.360;-122.046;2022-12-18T09:26:36;8.57;;;3.88;;
66542;SDS011;53395;37.360;-122.046;2022-12-18T09:29:03;7.78;;;4.15;;
66542;SDS011;53395;37.360;-122.046;2022-12-18T09:31:28;8.38;;;4.15;;
66542;SDS011;53395;37.360;-122.046;2022-12-18T09:33:55;10.02;;;4.07;;
66542;SDS011;53395;37.360;-122.046;2022-12-18T09:38:47;8.20;;;3.97;;
66542;SDS011;53395;37.360;-122.046;2022-12-18T09:41:25;9.07;;;4.05;;
66542;SDS011;53395;37.360;-122.046;2022-12-18T09:43:57;8.32;;;4.13;;
66542;SDS011;53395;37.360;-122.046;2022-12-18T09:46:26;8.10;;;3.78;;
66542;SDS011;53395;37.360;-122.046;2022-12-18T09:48:53;7.95;;;4.10;;
66542;SDS011;53395;37.360;-122.046;2022-12-18T09:51:24;10.10;;;3.92;;
66542;SDS011;53395;37.360;-122.046;2022-12-18T09:53:53;7.40;;;4.10;;
66542;SDS011;53395;37.360;-122.046;2022-12-18T09:56:21;6.70;;;3.65;;
66542;SDS011;53395;37.360;-122.046;2022-12-18T10:01:23;7.65;;;3.60;;
66542;SDS011;53395;37.360;-122.046;2022-12-18T10:03:49;7.70;;;3.80;;
66542;SDS011;53395;37.360;-122.046;2022-12-18T10:06:18;6.78;;;3.60;;
66542;SDS011;53395;37.360;-122.046;2022-12-18T10:14:08;8.65;;;4.20;;
66542;SDS011;53395;37.360;-122.046;2022-12-18T10:19:24;9.73;;;4.20;;
66542;SDS011;53395;37.360;-122.046;2022-12-18T10:21:56;7.20;;;3.95;;
66542;SDS011;53395;37.360;-122.046;2022-12-18T10:24:29;7.05;;;3.70;;
66542;SDS011;53395;37.360;-122.046;2022-12-18T10:27:02;6.28;;;3.60;;
66542;SDS011;53395;37.360;-122.046;2022-12-18T10:29:34;10.32;;;3.78;;
66542;SDS011;53395;37.360;-122.046;2022-12-18T10:31:59;7.82;;;3.70;;
66542;SDS011;53395;37.360;-122.046;2022-12-18T10:34:25;9.73;;;3.97;;
66542;SDS011;53395;37.360;-122.046;2022-12-18T10:36:51;7.55;;;3.80;;
66542;SDS011;53395;37.360;-122.046;2022-12-18T10:39:21;8.20;;;4.00;;
66542;SDS011;53395;37.360;-122.046;2022-12-18T10:42:16;8.43;;;3.78;;
66542;SDS011;53395;37.360;-122.046;2022-12-18T10:44:42;6.35;;;3.38;;
66542;SDS011;53395;37.360;-122.046;2022-12-18T10:47:11;7.15;;;3.47;;
66542;SDS011;53395;37.360;-122.046;2022-12-18T10:49:37;8.32;;;3.85;;
66542;SDS011;53395;37.360;-122.046;2022-12-18T10:52:12;8.82;;;4.18;;
66542;SDS011;53395;37.360;-122.046;2022-12-18T10:54:39;6.38;;;3.70;;
66542;SDS011;53395;37.360;-122.046;2022-12-18T10:57:29;7.00;;;3.50;;
66542;SDS011;53395;37.360;-122.046;2022-12-18T10:59:56;8.63;;;3.97;;
66542;SDS011;53395;37.360;-122.046;2022-12-18T11:02:35;8.27;;;3.80;;
66542;SDS011;53395;37.360;-122.046;2022-12-18T11:05:01;9.20;;;3.90;;
66542;SDS011;53395;37.360;-122.046;2022-12-18T11:07:40;8.13;;;3.80;;
66542;SDS011;53395;37.360;-122.046;2022-12-18T11:10:15;7.50;;;4.07;;
66542;SDS011;53395;37.360;-122.046;2022-12-18T11:12:41;7.85;;;3.60;;
66542;SDS011;53395;37.360;-122.046;2022-12-18T11:15:13;8.75;;;4.22;;
66542;SDS011;53395;37.360;-122.046;2022-12-18T11:17:40;7.00;;;3.65;;
66542;SDS011;53395;37.360;-122.046;2022-12-18T11:20:19;7.95;;;4.20;;
66542;SDS011;53395;37.360;-122.046;2022-12-18T11:22:54;9.48;;;4.00;;
66542;SDS011;53395;37.360;-122.046;2022-12-18T11:25:20;9.77;;;4.40;;
66542;SDS011;53395;37.360;-122.046;2022-12-18T11:27:54;9.40;;;4.38;;
66542;SDS011;53395;37.360;-122.046;2022-12-18T11:30:28;11.82;;;5.47;;
66542;SDS011;53395;37.360;-122.046;2022-12-18T11:35:56;9.23;;;4.50;;
66542;SDS011;53395;37.360;-122.046;2022-12-18T11:38:24;8.68;;;4.10;;
66542;SDS011;53395;37.360;-122.046;2022-12-18T11:41:02;9.98;;;4.85;;
66542;SDS011;53395;37.360;-122.046;2022-12-18T11:46:36;10.20;;;4.60;;
66542;SDS011;53395;37.360;-122.046;2022-12-18T11:49:06;13.45;;;5.80;;
66542;SDS011;53395;37.360;-122.046;2022-12-18T11:51:36;15.60;;;5.65;;
66542;SDS011;53395;37.360;-122.046;2022-12-18T11:54:12;17.60;;;6.18;;
66542;SDS011;53395;37.360;-122.046;2022-12-18T12:02:29;15.57;;;5.85;;
66542;SDS011;53395;37.360;-122.046;2022-12-18T12:12:06;11.93;;;5.07;;
66542;SDS011;53395;37.360;-122.046;2022-12-18T12:17:14;11.30;;;4.78;;
66542;SDS011;53395;37.360;-122.046;2022-12-18T12:19:49;9.55;;;4.60;;
66542;SDS011;53395;37.360;-122.046;2022-12-18T12:22:24;9.57;;;4.85;;
66542;SDS011;53395;37.360;-122.046;2022-12-18T12:25:05;10.65;;;4.55;;
66542;SDS011;53395;37.360;-122.046;2022-12-18T12:30:02;11.43;;;5.22;;
66542;SDS011;53395;37.360;-122.046;2022-12-18T12:37:32;11.02;;;4.90;;
66542;SDS011;53395;37.360;-122.046;2022-12-18T12:40:01;14.48;;;5.20;;
66542;SDS011;53395;37.360;-122.046;2022-12-18T12:42:44;8.93;;;4.95;;
66542;SDS011;53395;37.360;-122.046;2022-12-18T12:45:37;9.30;;;4.45;;
66542;SDS011;53395;37.360;-122.046;2022-12-18T12:48:05;9.40;;;4.25;;
66542;SDS011;53395;37.360;-122.046;2022-12-18T12:50:33;10.50;;;5.15;;
66542;SDS011;53395;37.360;-122.046;2022-12-18T12:55:26;8.15;;;4.15;;
66542;SDS011;53395;37.360;-122.046;2022-12-18T12:57:58;9.65;;;4.45;;
66542;SDS011;53395;37.360;-122.046;2022-12-18T13:00:25;11.05;;;4.80;;
66542;SDS011;53395;37.360;-122.046;2022-12-18T13:02:56;12.35;;;4.88;;
66542;SDS011;53395;37.360;-122.046;2022-12-18T13:08:05;8.75;;;4.68;;
66542;SDS011;53395;37.360;-122.046;2022-12-18T13:10:33;9.15;;;5.18;;
66542;SDS011;53395;37.360;-122.046;2022-12-18T13:13:07;10.50;;;4.82;;
66542;SDS011;53395;37.360;-122.046;2022-12-18T13:15:39;8.85;;;4.43;;
66542;SDS011;53395;37.360;-122.046;2022-12-18T13:20:35;11.32;;;5.25;;
66542;SDS011;53395;37.360;-122.046;2022-12-18T13:23:17;10.15;;;4.63;;
66542;SDS011;53395;37.360;-122.046;2022-12-18T13:25:44;9.43;;;4.88;;
66542;SDS011;53395;37.360;-122.046;2022-12-18T13:41:01;9.35;;;4.45;;
66542;SDS011;53395;37.360;-122.046;2022-12-18T13:48:25;9.90;;;4.45;;
66542;SDS011;53395;37.360;-122.046;2022-12-18T13:51:08;9.82;;;4.78;;
66542;SDS011;53395;37.360;-122.046;2022-12-18T13:53:39;8.90;;;5.40;;
66542;SDS011;53395;37.360;-122.046;2022-12-18T13:56:07;10.35;;;4.82;;
66542;SDS011;53395;37.360;-122.046;2022-12-18T13:58:33;10.02;;;4.78;;
66542;SDS011;53395;37.360;-122.046;2022-12-18T14:00:59;8.40;;;4.10;;
66542;SDS011;53395;37.360;-122.046;2022-12-18T14:03:28;12.35;;;4.97;;
66542;SDS011;53395;37.360;-122.046;2022-12-18T14:06:27;11.45;;;4.53;;
66542;SDS011;53395;37.360;-122.046;2022-12-18T14:08:46;8.60;;;4.57;;
66542;SDS011;53395;37.360;-122.046;2022-12-18T14:11:22;10.52;;;4.93;;
66542;SDS011;53395;37.360;-122.046;2022-12-18T14:13:48;9.27;;;4.47;;
66542;SDS011;53395;37.360;-122.046;2022-12-18T14:16:15;8.73;;;3.70;;
66542;SDS011;53395;37.360;-122.046;2022-12-18T14:18:44;11.43;;;5.25;;
66542;SDS011;53395;37.360;-122.046;2022-12-18T14:21:20;11.63;;;4.60;;
66542;SDS011;53395;37.360;-122.046;2022-12-18T14:23:47;9.20;;;4.22;;
66542;SDS011;53395;37.360;-122.046;2022-12-18T14:26:20;8.30;;;4.38;;
66542;SDS011;53395;37.360;-122.046;2022-12-18T14:28:46;8.00;;;4.18;;
66542;SDS011;53395;37.360;-122.046;2022-12-18T14:31:22;9.65;;;4.47;;
66542;SDS011;53395;37.360;-122.046;2022-12-18T14:33:49;9.13;;;5.00;;
66542;SDS011;53395;37.360;-122.046;2022-12-18T14:36:16;11.23;;;4.95;;
66542;SDS011;53395;37.360;-122.046;2022-12-18T14:38:42;8.90;;;4.60;;
66542;SDS011;53395;37.360;-122.046;2022-12-18T14:41:15;11.32;;;4.68;;
66542;SDS011;53395;37.360;-122.046;2022-12-18T14:43:42;11.70;;;5.03;;
66542;SDS011;53395;37.360;-122.046;2022-12-18T14:48:52;8.38;;;4.38;;
66542;SDS011;53395;37.360;-122.046;2022-12-18T14:51:19;8.77;;;4.57;;
66542;SDS011;53395;37.360;-122.046;2022-12-18T14:56:19;8.77;;;4.82;;
66542;SDS011;53395;37.360;-122.046;2022-12-18T14:58:50;9.80;;;4.55;;
66542;SDS011;53395;37.360;-122.046;2022-12-18T15:01:20;9.25;;;4.53;;
66542;SDS011;53395;37.360;-122.046;2022-12-18T15:03:46;10.50;;;4.28;;
66542;SDS011;53395;37.360;-122.046;2022-12-18T15:06:45;9.70;;;4.40;;
66542;SDS011;53395;37.360;-122.046;2022-12-18T15:09:23;8.50;;;4.68;;
66542;SDS011;53395;37.360;-122.046;2022-12-18T15:11:49;9.82;;;4.57;;
66542;SDS011;53395;37.360;-122.046;2022-12-18T15:16:55;9.18;;;4.43;;
66542;SDS011;53395;37.360;-122.046;2022-12-18T15:19:21;8.70;;;4.22;;
66542;SDS011;53395;37.360;-122.046;2022-12-18T15:21:48;8.88;;;4.70;;
66542;SDS011;53395;37.360;-122.046;2022-12-18T15:24:18;9.57;;;4.90;;
66542;SDS011;53395;37.360;-122.046;2022-12-18T15:26:45;9.15;;;4.38;;
66542;SDS011;53395;37.360;-122.046;2022-12-18T15:29:20;10.85;;;4.90;;
66542;SDS011;53395;37.360;-122.046;2022-12-18T15:31:57;11.25;;;5.28;;
66542;SDS011;53395;37.360;-122.046;2022-12-18T15:34:23;10.05;;;5.80;;
66542;SDS011;53395;37.360;-122.046;2022-12-18T15:36:50;10.85;;;4.72;;
66542;SDS011;53395;37.360;-122.046;2022-12-18T15:39:16;9.10;;;5.15;;
66542;SDS011;53395;37.360;-122.046;2022-12-18T15:41:42;10.95;;;4.90;;
66542;SDS011;53395;37.360;-122.046;2022-12-18T15:44:28;9.52;;;5.05;;
66542;SDS011;53395;37.360;-122.046;2022-12-18T15:46:53;12.15;;;5.10;;
66542;SDS011;53395;37.360;-122.046;2022-12-18T15:49:19;10.80;;;5.75;;
66542;SDS011;53395;37.360;-122.046;2022-12-18T15:51:45;13.05;;;6.13;;
66542;SDS011;53395;37.360;-122.046;2022-12-18T15:54:13;15.60;;;5.72;;
66542;SDS011;53395;37.360;-122.046;2022-12-18T15:56:41;11.40;;;5.90;;
66542;SDS011;53395;37.360;-122.046;2022-12-18T15:59:25;10.10;;;5.25;;
66542;SDS011;53395;37.360;-122.046;2022-12-18T16:01:51;9.70;;;5.38;;
66542;SDS011;53395;37.360;-122.046;2022-12-18T16:04:20;10.40;;;5.43;;
66542;SDS011;53395;37.360;-122.046;2022-12-18T16:06:47;10.95;;;5.32;;